Plattsmouth, NE

2:17 AM CDT on August 20, 2017 (GMT -0500)
Plattsmouth Municipal | | Change Station

Elev 1201 ft 40.95 °N, 95.92 °W | Updated 22 minutes ago

Light Thunderstorms and Rain
Light Thunderstorm Rain
75 °F
Feels Like 75 °F
N
10
Wind Variable Wind from NNW
Gusts 16 mph

Today
High -- | Low -- °F
--% Chance of Precip.
Yesterday
High -- | Low -- °F
Precip. -- in
Pressure 29.96 in
Visibility 10.0 miles
Clouds Scattered Clouds 2800 ft
Mostly Cloudy 6500 ft
Overcast 7000 ft
Dew Point 68 °F
Humidity 80%
Rainfall 0.00 in
Snow Depth Not available.
6:38 AM 8:14 PM
Waning Crescent, 3% visible
METAR KPMV 200655Z AUTO 33009G14KT 10SM -VCTSRA SCT028 BKN065 OVC070 24/20 A2996 RMK AO2 LTG DSNT N NE AND SW T02370200
Pressure 29.96 in
Visibility 10.0 miles
Clouds Scattered Clouds 2800 ft
Mostly Cloudy 6500 ft
Overcast 7000 ft
Dew Point 68 °F
Humidity 80%
Rainfall 0.00 in
Snow Depth Not available.
6:38 AM 8:14 PM
Waning Crescent, 3% visible
METAR KPMV 200655Z AUTO 33009G14KT 10SM -VCTSRA SCT028 BKN065 OVC070 24/20 A2996 RMK AO2 LTG DSNT N NE AND SW T02370200

Get Severe Weather Alerts

Thanks for signing up!

Be on the lookout for a verification email in your inbox.

You'll start receiving the daily forecast at 6 AM.

×

10-Day Weather Forecast

Almanac

Astronomy

Aug. 20, 2017 Rise Set
Actual Time
Civil Twilight
Nautical Twilight
Astronomical Twilight
Moon
Length of Visible Light
Length of Day
Tomorrow will be .
, % of the Moon is Illuminated

Today's Extremes

State Highs State Lows

Community

WunderPhotos

Category 6

Welcome to Category 6. This is the collective home for Weather Underground's featured writeups by Dr. Jeff Masters (right), Bob Henson (left), Chris Burt, and other regular contributors.

Nearby

Air Quality

  Air Quality AQ Index Pollutant
Not available.

Snow Depth

Station Depth Elevation

Earthquake Activity

City Distance Mag. Time & Date
Minimum magnitude displayed is 2.5.

Coastal Water Temperatures

Place Temperature

Stations

Nearby Weather Stations

Station Location Temp. Windchill Dew Point Humidity Wind Precip. Elev Updated Type
                   

Watches & Warnings

There are currently no watches in effect.